To NAV CANADA Home Page Login to a new session Search on AWWS site Disclaimer Vers la page française équivalente Tips FAQ What's new on the site To the Forecasts and Observations / NOTAM section To "File a Flight Plan" website Publications and other links Update of the User's profile FIC Telephone Numbers My Weather Data Folder Route Weather Data Regional Weather Data Local Weather Data To the Forecasts and Observations / NOTAM section
Request Generated 10/24/2018 at 01:23:50 UTC . Weather information available at that time is displayed.


Go to a specific product

Save this request - Inactive

METAR/TAF

If you find any discrepancies between the coded METAR/TAF and the plain language METAR/TAF please use the coded METAR/TAF. LWIS bulletins are not decoded in plain language.

OTTAWA/GATINEAU/QC    

METAR CYND 240100Z 00000KT 15SM FEW045 BKN060 BKN220 05/02 A3002 RMK SC1SC5CI1 ST STFD OBS/NEXT 241100 UTC SLP171=
METAR
LOCATION
CYND - OTTAWA/GATINEAU/QC
DATE - TIME
24 OCTOBER 2018 - 0100 UTC
WIND
CALM
VISIBILITY
15 STAT.  MILES
RUNWAY VISUAL RANGE
WEATHER
CLOUDINESS
FEW CLOUDS (1/8 - 2/8) 4500  FT
BROKEN CLOUDS (5/8 - 7/8) 6000  FT
BROKEN CLOUDS (5/8 - 7/8) 22000  FT
TEMP / DEWPOINT
5 C / 2 C
ALTIMETER
30.02 IN HG
RECENT WEATHER
WIND SHEAR

METAR CYND 240000Z 00000KT 15SM BKN040 BKN060 OVC220 05/02 A3001 RMK SC5SC2CI1 P167=
METAR
LOCATION
CYND - OTTAWA/GATINEAU/QC
DATE - TIME
24 OCTOBER 2018 - 0000 UTC
WIND
CALM
VISIBILITY
15 STAT.  MILES
RUNWAY VISUAL RANGE
WEATHER
CLOUDINESS
BROKEN CLOUDS (5/8 - 7/8) 4000  FT
BROKEN CLOUDS (5/8 - 7/8) 6000  FT
OVERCAST 22000  FT
TEMP / DEWPOINT
5 C / 2 C
ALTIMETER
30.01 IN HG
RECENT WEATHER
WIND SHEAR

METAR CYND 232300Z 07003KT 15SM BKN043 BKN120 06/02 A3000 RMK SC6AC1 SLP163=
METAR
LOCATION
CYND - OTTAWA/GATINEAU/QC
DATE - TIME
23 OCTOBER 2018 - 2300 UTC
WIND
70 TRUE @ 3  KNOTS
VISIBILITY
15 STAT.  MILES
RUNWAY VISUAL RANGE
WEATHER
CLOUDINESS
BROKEN CLOUDS (5/8 - 7/8) 4300  FT
BROKEN CLOUDS (5/8 - 7/8) 12000  FT
TEMP / DEWPOINT
6 C / 2 C
ALTIMETER
30.00 IN HG
RECENT WEATHER
WIND SHEAR

*** REMARK        : Forecast period has ended; this was the last TAF issued
TAF CYND 231748Z 2318/2401 08012KT P6SM SCT020 BKN040 TEMPO 2320/2401 P6SM -SHRA BKN020 OVC040 BECMG 2323/2324 04008KT RMK NXT FCST WILL BE ISSUED AT 241245Z=
TAF
LOCATION

CYND - OTTAWA/GATINEAU/QC
VALIDITY [UTC]
23 OCT - 1748 to
24 OCT - 0100
 
TIMES
[UTC]
WIND
[DEGREES TRUE]
VISIBILITY
[STAT. MILES]
WEATHER
CLOUDINESS
[FEET AGL]
 
23 OCT - 1800 to
24 OCT - 0100
80 @ 12 KNOTS
6+
NIL
2000 SCATTERED
4000 BROKEN
TEMPORARY CHANGES
23 OCT - 2000 to
24 OCT - 0100
 
6+
LIGHT RAIN SHOWER
2000 BROKEN
4000 OVERCAST
BECOMING
23 OCT - 2300 to
24 OCT - 0000
40 @ 8 KNOTS
 
 
 
REMARKS
THE NEXT FORECAST WILL BE ISSUED AT 1245 UTC ON DAY 24


OTTAWA/MACDONALD-CARTIER INTL/ON    

METAR CYOW 240100Z 08004KT 15SM BKN065 05/00 A3002 RMK SC7 SLP171=
METAR
LOCATION
CYOW - OTTAWA/MACDONALD-CARTIER INTL/ON
DATE - TIME
24 OCTOBER 2018 - 0100 UTC
WIND
80 TRUE @ 4  KNOTS
VISIBILITY
15 STAT.  MILES
RUNWAY VISUAL RANGE
WEATHER
CLOUDINESS
BROKEN CLOUDS (5/8 - 7/8) 6500  FT
TEMP / DEWPOINT
5 C / 0 C
ALTIMETER
30.02 IN HG
RECENT WEATHER
WIND SHEAR

METAR CYOW 240000Z 10005KT 15SM FEW040 BKN065 04/00 A3000 RMK SC2SC4 SLP166=
METAR
LOCATION
CYOW - OTTAWA/MACDONALD-CARTIER INTL/ON
DATE - TIME
24 OCTOBER 2018 - 0000 UTC
WIND
100 TRUE @ 5  KNOTS
VISIBILITY
15 STAT.  MILES
RUNWAY VISUAL RANGE
WEATHER
CLOUDINESS
FEW CLOUDS (1/8 - 2/8) 4000  FT
BROKEN CLOUDS (5/8 - 7/8) 6500  FT
TEMP / DEWPOINT
4 C / 0 C
ALTIMETER
30.00 IN HG
RECENT WEATHER
WIND SHEAR

METAR CYOW 232300Z 06006KT 15SM FEW100 SCT220 05/01 A2999 RMK AC2CI1 SLP163=
METAR
LOCATION
CYOW - OTTAWA/MACDONALD-CARTIER INTL/ON
DATE - TIME
23 OCTOBER 2018 - 2300 UTC
WIND
60 TRUE @ 6  KNOTS
VISIBILITY
15 STAT.  MILES
RUNWAY VISUAL RANGE
WEATHER
CLOUDINESS
FEW CLOUDS (1/8 - 2/8) 10000  FT
SCATTERED CLOUDS (3/8 - 4/8) 22000  FT
TEMP / DEWPOINT
5 C / 1 C
ALTIMETER
29.99 IN HG
RECENT WEATHER
WIND SHEAR

TAF CYOW 232341Z 2400/2424 06006KT P6SM FEW040 SCT070 BKN140 TEMPO 2400/2405 BKN030 BKN070 FM240500 01008KT P6SM BKN025 BKN120 TEMPO 2405/2414 OVC020 BECMG 2409/2411 34010KT FM241500 33012KT P6SM BKN030 RMK NXT FCST BY 240300Z=
TAF

23 OCT 2018 - 2341 UTC
LOCATION

CYOW - OTTAWA/MACDONALD-CARTIER INTL/ON
VALIDITY [UTC]
23 OCT - 2341 to
25 OCT - 0000
 
TIMES
[UTC]
WIND
[DEGREES TRUE]
VISIBILITY
[STAT. MILES]
WEATHER
CLOUDINESS
[FEET AGL]
 
24 OCT - 0000 to
24 OCT - 0500
60 @ 6 KNOTS
6+
NIL
4000 FEW
7000 SCATTERED
14000 BROKEN
TEMPORARY CHANGES
24 OCT - 0000 to
24 OCT - 0500
 
 
 
3000 BROKEN
7000 BROKEN
 
24 OCT - 0500 to
24 OCT - 1500
10 @ 8 KNOTS
6+
NIL
2500 BROKEN
12000 BROKEN
TEMPORARY CHANGES
24 OCT - 0500 to
24 OCT - 1400
 
 
 
2000 OVERCAST
BECOMING
24 OCT - 0900 to
24 OCT - 1100
340 @ 10 KNOTS
 
 
 
 
24 OCT - 1500 to
25 OCT - 0000
330 @ 12 KNOTS
6+
NIL
3000 BROKEN
REMARKS
THE NEXT FORECAST WILL BE ISSUED BY 0300 UTC ON DAY 24




GRAPHICAL FA CLOUDS & WEATHER FORECASTS
To the Product Selector
Graphical FA gfacn33      

GRAPHICAL FA ICING, TURBULENCE & FREEZING LEVEL FORECASTS
To the Product Selector
Graphical FA gfacn33      

FDTEXT Low Level FD. Temperatures are not forecast for the 3,000-foot level.
To the Product Selector
STN YOW - OTTAWA. ONT for use 3000 6000 9000 12000 18000
FDCN01 CWAO FCST BASED ON 231200 DATA VALID 231800 17-21 1110 1910-04 1807-10 2106-18 2312-31
FDCN02 CWAO FCST BASED ON 231800 DATA VALID 240000 21-06 0719 0708-05 0110-11 3605-18 3110-33
FDCN03 CWAO FCST BASED ON 231200 DATA VALID 241200 06-17 0116 0219-05 0123-11 3623-17 3620-33



Your time UTC time
Weather data provided by Environment Canada and NAV CANADA